Time;durP1;ratioP1;P1;durP2;ratioP2;P2;SDS_P1;SDS_P2;PMS_P1;PMS_P2;Temp;Humidity;BMP_temperature;BMP_pressure;BME280_temperature;BME280_humidity;BME280_pressure;Samples;Min_cycle;Max_cycle;Signal;HPM_P1;HPM_P2
2022/08/22 10:35:26;;;;;;;7.50;1.13;;;31.10;41.10;;;;;;4828506;27;20045;-73
2022/08/22 10:38:19;;;;;;;3.20;0.70;;;30.40;42.40;;;;;;4877659;29;20037;-73
2022/08/22 10:41:02;;;;;;;9.80;1.10;;;29.30;44.60;;;;;;4859348;29;20037;-73
2022/08/22 10:44:01;;;;;;;3.42;0.95;;;29.20;46.00;;;;;;4865418;29;20102;-73
2022/08/22 10:46:43;;;;;;;2.20;0.90;;;28.60;47.50;;;;;;4839202;29;20061;-73
2022/08/22 10:49:34;;;;;;;5.25;1.10;;;28.10;49.80;;;;;;4840694;29;20026;-73
2022/08/22 10:52:13;;;;;;;2.00;0.75;;;28.20;50.40;;;;;;4841391;29;20034;-73
2022/08/22 10:54:55;;;;;;;5.90;1.50;;;28.20;51.30;;;;;;4844148;29;20030;-73
2022/08/22 10:57:35;;;;;;;;;;;28.20;49.60;;;;;;4844928;29;20475;-73
2022/08/22 11:00:29;;;;;;;6.65;1.50;;;28.60;46.30;;;;;;4843504;29;19940;-73
2022/08/22 11:03:38;;;;;;;7.90;1.55;;;28.40;47.40;;;;;;4843855;29;20094;-74
2022/08/22 11:06:13;;;;;;;4.32;1.40;;;27.30;48.90;;;;;;4844216;29;20652;-75
2022/08/22 11:08:48;;;;;;;6.03;1.42;;;28.20;48.90;;;;;;4844063;29;20081;-73
2022/08/22 11:11:22;;;;;;;8.18;1.77;;;30.10;46.50;;;;;;4844108;29;20026;-78
2022/08/22 11:14:23;;;;;;;5.95;0.80;;;31.50;45.10;;;;;;4842890;29;20053;-77
2022/08/22 11:16:52;;;;;;;;;;;32.80;39.00;;;;;;4840731;29;20065;-73
2022/08/22 11:19:21;;;;;;;6.72;1.10;;;33.60;38.90;;;;;;4843962;29;19940;-73
2022/08/22 11:22:18;;;;;;;5.63;1.02;;;33.20;36.70;;;;;;4843527;29;20038;-74
2022/08/22 11:25:08;;;;;;;4.30;1.10;;;32.90;38.50;;;;;;4843888;29;20415;-73
2022/08/22 11:28:02;;;;;;;5.70;1.15;;;32.80;38.30;;;;;;4849770;29;20026;-74
2022/08/22 11:30:52;;;;;;;4.35;1.40;;;32.30;37.90;;;;;;4862392;29;20501;-74
2022/08/22 11:33:32;;;;;;;3.30;1.02;;;31.00;38.50;;;;;;4862671;29;20090;-73
2022/08/22 11:36:19;;;;;;;7.03;1.08;;;29.20;42.70;;;;;;4862155;29;20067;-74
2022/08/22 11:38:53;;;;;;;4.03;0.88;;;29.20;45.10;;;;;;4860979;29;20120;-73
2022/08/22 11:41:24;;;;;;;5.40;0.80;;;29.50;44.10;;;;;;4857813;29;20057;-73
2022/08/22 11:44:08;;;;;;;3.67;0.80;;;30.50;43.90;;;;;;4857786;29;20030;-73
2022/08/22 11:46:38;;;;;;;4.20;1.27;;;30.60;41.60;;;;;;4842134;29;20034;-75
2022/08/22 11:49:35;;;;;;;3.47;0.73;;;30.80;41.70;;;;;;4857688;29;20026;-74
2022/08/22 11:52:12;;;;;;;2.90;0.80;;;30.70;41.70;;;;;;4856730;29;20416;-75
2022/08/22 11:55:15;;;;;;;4.10;0.65;;;30.60;41.40;;;;;;4858875;29;20506;-75
2022/08/22 11:58:01;;;;;;;2.58;0.85;;;31.20;43.50;;;;;;4860506;29;20079;-75
2022/08/22 12:01:02;;;;;;;3.92;0.80;;;33.40;41.30;;;;;;4856861;29;20098;-75
2022/08/22 12:03:50;;;;;;;;;;;34.70;36.00;;;;;;4859675;29;20025;-75
2022/08/22 12:06:43;;;;;;;3.25;0.90;;;34.70;35.70;;;;;;4859930;29;19972;-75
2022/08/22 12:09:15;;;;;;;4.72;1.05;;;34.40;35.60;;;;;;4860829;29;20024;-75
2022/08/22 12:11:44;;;;;;;3.53;0.85;;;35.00;34.00;;;;;;4860278;29;20029;-75
2022/08/22 12:14:34;;;;;;;5.15;0.88;;;35.80;34.90;;;;;;4860456;29;20501;-74
2022/08/22 12:17:23;;;;;;;4.97;0.80;;;34.80;33.00;;;;;;4857983;29;20030;-75
2022/08/22 12:20:12;;;;;;;2.65;1.00;;;35.70;32.80;;;;;;4860867;29;20025;-75
2022/08/22 12:22:46;;;;;;;8.15;0.95;;;37.20;33.00;;;;;;4859834;29;20418;-75
2022/08/22 12:25:14;;;;;;;7.47;1.10;;;37.00;31.10;;;;;;4861415;29;20085;-72
2022/08/22 12:27:57;;;;;;;5.03;0.80;;;37.10;29.90;;;;;;4861107;29;20790;-75
2022/08/22 12:30:29;;;;;;;2.13;0.60;;;37.30;30.20;;;;;;4861167;29;20061;-74
2022/08/22 12:33:19;;;;;;;4.10;1.10;;;36.10;30.10;;;;;;4860904;29;20113;-75
2022/08/22 12:36:01;;;;;;;5.03;1.42;;;34.30;32.60;;;;;;4860959;29;20464;-77
2022/08/22 12:38:42;;;;;;;6.05;1.23;;;32.90;36.60;;;;;;4860796;29;20034;-78
2022/08/22 12:41:37;;;;;;;5.03;0.98;;;33.00;36.00;;;;;;4860547;29;20038;-78
2022/08/22 12:44:45;;;;;;;6.25;0.80;;;32.70;35.90;;;;;;4853084;29;20129;-75
2022/08/22 12:47:20;;;;;;;4.18;0.88;;;31.90;35.90;;;;;;4859749;29;20138;-75
2022/08/22 12:50:05;;;;;;;6.35;1.40;;;31.20;38.00;;;;;;4860771;29;20033;-75
2022/08/22 12:52:46;;;;;;;2.30;0.52;;;29.60;39.80;;;;;;4859859;29;20068;-75
2022/08/22 12:55:12;;;;;;;;;;;29.00;42.80;;;;;;4860021;29;20378;-75
2022/08/22 12:58:00;;;;;;;7.50;1.15;;;28.40;45.40;;;;;;4859730;29;19908;-75
2022/08/22 13:00:36;;;;;;;5.90;1.08;;;28.30;45.20;;;;;;4858309;29;20043;-75
2022/08/22 13:03:10;;;;;;;5.60;1.30;;;28.00;47.70;;;;;;4859576;29;20049;-78
2022/08/22 13:05:37;;;;;;;4.25;0.63;;;28.00;45.50;;;;;;4859819;29;20026;-77
2022/08/22 13:08:12;;;;;;;4.00;1.20;;;28.20;46.20;;;;;;4859946;29;20022;-78
2022/08/22 13:10:44;;;;;;;3.00;0.80;;;28.40;46.20;;;;;;4859500;29;20478;-78
2022/08/22 13:13:24;;;;;;;4.40;1.27;;;29.00;45.20;;;;;;4859794;29;20034;-78
2022/08/22 13:16:06;;;;;;;7.28;0.98;;;28.60;46.10;;;;;;4859286;29;20034;-79
2022/08/22 13:19:02;;;;;;;4.68;1.00;;;28.70;47.40;;;;;;4858955;29;20022;-77
2022/08/22 13:21:32;;;;;;;4.10;0.70;;;28.70;47.80;;;;;;4858867;29;20160;-75
2022/08/22 13:24:05;;;;;;;5.35;0.88;;;28.50;46.20;;;;;;4859532;29;20022;-77
2022/08/22 13:26:32;;;;;;;4.60;0.65;;;28.30;45.50;;;;;;4859350;29;20475;-76
2022/08/22 13:29:16;;;;;;;3.83;0.75;;;27.90;45.80;;;;;;4857954;29;20030;-76
2022/08/22 13:31:42;;;;;;;4.03;0.90;;;27.20;47.00;;;;;;4859283;29;20423;-76
2022/08/22 13:34:28;;;;;;;5.20;1.10;;;27.10;49.60;;;;;;4859290;29;20021;-76
2022/08/22 13:36:59;;;;;;;4.10;0.80;;;26.90;50.10;;;;;;4850743;29;20494;-75
2022/08/22 13:39:32;;;;;;;;;;;27.00;49.00;;;;;;4859732;29;20029;-74
2022/08/22 13:42:02;;;;;;;5.10;0.90;;;27.10;50.00;;;;;;4859568;29;20019;-76
2022/08/22 13:44:35;;;;;;;4.50;1.00;;;27.00;49.50;;;;;;4859257;29;20022;-76
2022/08/22 13:47:07;;;;;;;2.35;0.95;;;27.50;49.70;;;;;;4858339;29;20056;-75
2022/08/22 13:49:40;;;;;;;6.50;1.00;;;27.70;48.00;;;;;;4857132;29;20033;-75
2022/08/22 13:52:30;;;;;;;3.47;0.80;;;27.60;48.10;;;;;;4856364;29;20074;-75
2022/08/22 13:55:10;;;;;;;3.08;0.80;;;27.50;48.60;;;;;;4858057;29;20525;-75
2022/08/22 13:57:49;;;;;;;4.88;1.10;;;27.10;49.00;;;;;;4858691;29;20482;-75
2022/08/22 14:00:18;;;;;;;3.95;1.10;;;26.60;49.60;;;;;;4852261;29;20034;-75
2022/08/22 14:05:33;;;;;;;3.70;0.82;;;26.40;53.00;;;;;;4850796;29;20789;-76
2022/08/22 14:08:11;;;;;;;6.10;1.65;;;26.60;53.70;;;;;;4852193;29;20414;-76
2022/08/22 14:10:58;;;;;;;8.25;1.38;;;26.70;55.90;;;;;;4853084;29;20809;-76
2022/08/22 14:13:24;;;;;;;6.57;1.33;;;26.80;55.80;;;;;;4878771;29;20081;-76
2022/08/22 14:15:58;;;;;;;8.43;1.08;;;26.70;55.80;;;;;;4848501;29;20045;-76
2022/08/22 14:18:36;;;;;;;8.48;1.58;;;26.80;55.00;;;;;;4841903;29;20034;-76
2022/08/22 14:21:40;;;;;;;3.40;0.88;;;27.00;53.20;;;;;;4852154;29;20160;-76
2022/08/22 14:24:29;;;;;;;5.13;0.85;;;27.00;53.80;;;;;;4797606;29;20045;-77
2022/08/22 14:27:25;;;;;;;7.40;1.20;;;27.00;53.60;;;;;;4837624;29;20042;-76
2022/08/22 14:29:56;;;;;;;3.45;1.10;;;27.60;51.70;;;;;;4840484;29;20186;-77
2022/08/22 14:32:22;;;;;;;7.45;1.10;;;28.30;52.70;;;;;;4838958;29;20086;-77
2022/08/22 14:35:34;;;;;;;2.22;0.70;;;28.80;49.70;;;;;;4843547;29;20034;-76
2022/08/22 14:38:17;;;;;;;5.65;1.10;;;29.00;47.50;;;;;;4832384;29;20049;-76
2022/08/22 14:40:46;;;;;;;2.47;0.52;;;29.70;47.80;;;;;;4858614;29;20041;-77
2022/08/22 14:43:32;;;;;;;5.25;0.93;;;30.00;47.40;;;;;;4857360;29;20518;-77
2022/08/22 14:46:00;;;;;;;3.88;0.98;;;30.80;46.70;;;;;;4858078;29;20278;-76
2022/08/22 14:48:58;;;;;;;3.85;0.75;;;31.50;43.60;;;;;;4853530;29;20025;-76
2022/08/22 14:51:25;;;;;;;2.55;0.95;;;32.20;42.00;;;;;;4832600;29;20037;-76
2022/08/22 14:53:51;;;;;;;4.40;0.60;;;33.40;40.20;;;;;;4858798;29;20026;-76
2022/08/22 14:56:26;;;;;;;5.05;0.57;;;33.30;39.80;;;;;;4857676;29;20436;-77
2022/08/22 14:59:07;;;;;;;3.75;0.80;;;33.60;38.10;;;;;;4858780;29;20483;-76
2022/08/22 15:01:50;;;;;;;;;;;33.30;38.20;;;;;;4848858;29;20638;-76
2022/08/22 15:04:32;;;;;;;5.07;0.93;;;32.40;39.70;;;;;;4849015;29;20258;-76
2022/08/22 15:06:58;;;;;;;1.75;0.60;;;32.30;41.10;;;;;;4840772;29;20475;-76
2022/08/22 15:09:32;;;;;;;3.10;0.70;;;33.60;38.80;;;;;;4840655;29;20102;-76
2022/08/22 15:12:00;;;;;;;6.63;1.15;;;34.70;36.90;;;;;;4840766;29;20034;-76
2022/08/22 15:14:34;;;;;;;8.00;0.98;;;35.20;36.80;;;;;;4840491;29;20022;-77
2022/08/22 15:17:04;;;;;;;5.07;0.82;;;35.80;35.80;;;;;;4840290;29;20030;-77
2022/08/22 15:19:37;;;;;;;6.03;1.15;;;36.80;34.50;;;;;;4842805;29;20873;-78
2022/08/22 15:22:13;;;;;;;2.42;0.70;;;37.10;33.70;;;;;;4852936;29;20149;-81
2022/08/22 15:24:56;;;;;;;5.38;0.80;;;36.40;33.20;;;;;;4850602;29;20030;-81
2022/08/22 15:27:24;;;;;;;2.92;0.50;;;36.10;33.90;;;;;;4849442;29;20112;-78
2022/08/22 15:29:57;;;;;;;5.43;0.90;;;35.80;34.80;;;;;;4851117;29;20040;-79
2022/08/22 15:32:27;;;;;;;5.18;0.90;;;36.00;34.10;;;;;;4849903;29;20034;-79
2022/08/22 15:35:22;;;;;;;6.40;1.25;;;35.20;34.60;;;;;;4848759;29;20025;-79
2022/08/22 15:37:58;;;;;;;4.13;0.70;;;35.00;36.30;;;;;;4832746;29;20085;-78
2022/08/22 15:40:44;;;;;;;2.78;0.88;;;34.30;36.10;;;;;;4850478;29;20117;-78
2022/08/22 15:43:25;;;;;;;4.95;0.90;;;33.10;38.80;;;;;;4850127;29;20037;-77
2022/08/22 15:46:26;;;;;;;2.07;1.00;;;31.70;40.90;;;;;;4851690;29;20129;-77
2022/08/22 15:49:01;;;;;;;3.70;1.00;;;30.60;43.20;;;;;;4851103;29;20141;-77
2022/08/22 15:51:38;;;;;;;6.93;1.42;;;29.00;46.40;;;;;;4846725;29;20067;-77
2022/08/22 15:54:07;;;;;;;8.77;1.30;;;28.00;49.70;;;;;;4848395;29;20060;-77
2022/08/22 15:56:41;;;;;;;5.22;0.98;;;27.80;50.10;;;;;;4846561;29;20034;-77
2022/08/22 15:59:51;;;;;;;4.90;1.10;;;27.20;52.50;;;;;;4844660;29;20040;-77
2022/08/22 16:02:38;;;;;;;5.25;1.13;;;26.70;55.80;;;;;;4844930;29;20126;-77
2022/08/22 16:05:10;;;;;;;3.55;1.02;;;26.30;56.70;;;;;;4849865;29;20086;-78
2022/08/22 16:07:46;;;;;;;5.57;0.90;;;26.10;59.30;;;;;;4850713;29;20060;-78
2022/08/22 16:10:30;;;;;;;4.80;0.90;;;25.80;59.70;;;;;;4852134;29;20041;-77
2022/08/22 16:13:30;;;;;;;4.22;0.77;;;25.50;63.30;;;;;;4851003;29;20036;-77
2022/08/22 16:16:11;;;;;;;2.27;0.83;;;25.10;63.00;;;;;;4849550;29;20089;-76
2022/08/22 16:18:41;;;;;;;6.07;1.40;;;24.90;63.80;;;;;;4852326;29;20064;-76
2022/08/22 16:21:12;;;;;;;5.07;0.80;;;24.60;65.90;;;;;;4850213;29;20041;-76
2022/08/22 16:23:52;;;;;;;4.85;1.15;;;24.30;68.50;;;;;;4849411;29;20034;-76
2022/08/22 16:26:30;;;;;;;4.70;0.90;;;24.20;72.00;;;;;;4846355;29;20039;-76
2022/08/22 16:28:59;;;;;;;3.97;0.70;;;24.20;72.00;;;;;;4850456;29;20049;-77
2022/08/22 16:31:30;;;;;;;2.70;0.88;;;24.20;72.40;;;;;;4847333;29;20029;-77
2022/08/22 16:34:17;;;;;;;3.22;0.70;;;24.40;72.10;;;;;;4848940;29;20112;-76
2022/08/22 16:37:13;;;;;;;2.63;0.90;;;24.40;72.40;;;;;;4852596;29;20120;-76
2022/08/22 16:40:00;;;;;;;1.25;0.40;;;24.50;72.60;;;;;;4853429;29;20069;-77
2022/08/22 16:42:42;;;;;;;2.53;0.60;;;24.30;72.30;;;;;;4849811;29;20053;-78
2022/08/22 16:45:23;;;;;;;3.22;1.58;;;24.00;75.30;;;;;;4856560;29;20037;-74
2022/08/22 16:47:52;;;;;;;4.17;0.60;;;23.90;76.10;;;;;;4859762;29;20061;-74
2022/08/22 16:50:17;;;;;;;3.17;0.77;;;23.90;79.70;;;;;;4858757;29;20025;-74
2022/08/22 16:53:20;;;;;;;1.08;0.70;;;23.80;79.30;;;;;;4859378;29;20024;-75
2022/08/22 16:56:10;;;;;;;3.80;0.90;;;23.40;82.70;;;;;;4860423;29;20033;-73
2022/08/22 16:59:13;;;;;;;2.05;0.60;;;23.00;90.40;;;;;;4856047;29;20029;-73
2022/08/22 17:01:49;;;;;;;4.20;0.60;;;22.90;96.00;;;;;;4856631;29;20390;-75
2022/08/22 17:04:39;;;;;;;2.10;0.80;;;23.00;95.20;;;;;;4841826;29;20090;-75
2022/08/22 17:07:18;;;;;;;2.50;0.60;;;23.20;92.80;;;;;;4851431;29;20071;-74
2022/08/22 17:10:19;;;;;;;1.70;0.60;;;23.40;92.70;;;;;;4857152;29;20029;-74
2022/08/22 17:13:06;;;;;;;2.17;0.63;;;23.30;94.50;;;;;;4857840;29;20112;-73
2022/08/22 17:16:06;;;;;;;4.07;0.60;;;23.30;93.60;;;;;;4860085;29;20033;-74
2022/08/22 17:18:49;;;;;;;1.48;0.60;;;23.10;94.90;;;;;;4829895;29;20041;-73
2022/08/22 17:21:20;;;;;;;4.13;0.70;;;23.00;96.80;;;;;;4859543;29;20044;-74
2022/08/22 17:24:09;;;;;;;;;;;22.90;99.90;;;;;;4852105;29;20034;-73
2022/08/22 17:26:40;;;;;;;1.30;0.50;;;22.70;99.90;;;;;;4839793;29;20297;-73
2022/08/22 17:29:21;;;;;;;;;;;22.60;99.90;;;;;;4841644;29;20195;-74
2022/08/22 17:32:10;;;;;;;1.10;0.33;;;22.40;99.90;;;;;;4850115;29;19908;-74
2022/08/22 17:34:44;;;;;;;3.90;0.57;;;22.40;99.90;;;;;;4859628;29;20112;-73
2022/08/22 17:37:20;;;;;;;3.33;0.80;;;22.30;99.90;;;;;;4860047;29;20049;-75
2022/08/22 17:40:27;;;;;;;3.65;0.70;;;22.20;99.90;;;;;;4859676;29;20666;-74
2022/08/22 17:42:59;;;;;;;3.63;1.20;;;22.10;99.90;;;;;;4854309;29;20061;-74
2022/08/22 17:45:49;;;;;;;1.40;0.47;;;21.90;99.90;;;;;;4854381;29;20030;-74
2022/08/22 17:48:18;;;;;;;2.47;0.85;;;21.80;99.90;;;;;;4857269;29;20070;-74
2022/08/22 17:51:29;;;;;;;4.88;0.70;;;21.60;99.90;;;;;;4859009;29;20021;-74
2022/08/22 17:53:54;;;;;;;0.98;0.75;;;21.50;99.90;;;;;;4840729;29;20045;-74
2022/08/22 17:56:30;;;;;;;0.73;0.63;;;21.40;99.90;;;;;;4847270;29;20026;-74
2022/08/22 17:59:15;;;;;;;2.72;0.75;;;21.30;99.90;;;;;;4852031;29;20030;-74
2022/08/22 18:01:44;;;;;;;2.45;0.68;;;21.30;99.90;;;;;;4857815;29;20097;-74
2022/08/22 18:04:20;;;;;;;1.67;0.60;;;21.20;99.90;;;;;;4859500;29;20113;-74
2022/08/22 18:07:08;;;;;;;5.95;0.70;;;21.20;99.90;;;;;;4859457;29;20029;-74
2022/08/22 18:09:43;;;;;;;1.63;0.80;;;21.00;99.90;;;;;;4859498;29;20459;-74
2022/08/22 18:12:15;;;;;;;7.28;1.58;;;20.90;99.90;;;;;;4859335;29;20026;-74
2022/08/22 18:14:53;;;;;;;2.15;0.77;;;20.70;99.90;;;;;;4856471;29;20052;-74
2022/08/22 18:17:28;;;;;;;1.85;0.70;;;20.50;99.90;;;;;;4853744;29;20036;-75
2022/08/22 18:20:03;;;;;;;3.83;1.23;;;20.30;99.90;;;;;;4846700;29;20112;-74
2022/08/22 18:22:41;;;;;;;2.00;1.02;;;20.30;99.90;;;;;;4847666;29;20095;-74
2022/08/22 18:25:26;;;;;;;2.60;1.40;;;20.10;99.90;;;;;;4841213;29;20053;-75
2022/08/22 18:28:24;;;;;;;2.58;1.80;;;19.90;99.90;;;;;;4840920;29;20514;-74
2022/08/22 18:31:25;;;;;;;3.13;1.30;;;19.80;99.90;;;;;;4846489;29;20038;-74
